sensor_id;sensor_type;location;lat;lon;timestamp;pressure;altitude;pressure_sealevel;temperature;humidity
54329;BME280;40710;51.120;13.136;2023-04-04T00:01:12;100643.25;;;5.83;54.87
54329;BME280;40710;51.120;13.136;2023-04-04T00:03:37;100639.78;;;5.84;54.97
54329;BME280;40710;51.120;13.136;2023-04-04T00:06:01;100636.38;;;5.78;54.71
54329;BME280;40710;51.120;13.136;2023-04-04T00:08:26;100632.97;;;5.71;55.25
54329;BME280;40710;51.120;13.136;2023-04-04T00:10:56;100629.94;;;5.35;56.05
54329;BME280;40710;51.120;13.136;2023-04-04T00:13:21;100630.56;;;5.56;55.58
54329;BME280;40710;51.120;13.136;2023-04-04T00:15:46;100643.22;;;5.85;55.68
54329;BME280;40710;51.120;13.136;2023-04-04T00:18:10;100627.78;;;5.69;55.83
54329;BME280;40710;51.120;13.136;2023-04-04T00:20:35;100632.19;;;5.64;55.57
54329;BME280;40710;51.120;13.136;2023-04-04T00:22:59;100633.59;;;5.90;55.25
54329;BME280;40710;51.120;13.136;2023-04-04T00:25:24;100624.25;;;5.75;55.83
54329;BME280;40710;51.120;13.136;2023-04-04T00:27:48;100627.75;;;5.71;56.20
54329;BME280;40710;51.120;13.136;2023-04-04T00:30:13;100626.94;;;5.66;56.24
54329;BME280;40710;51.120;13.136;2023-04-04T00:32:38;100619.19;;;5.63;55.94
54329;BME280;40710;51.120;13.136;2023-04-04T00:35:02;100628.00;;;5.53;56.39
54329;BME280;40710;51.120;13.136;2023-04-04T00:37:27;100619.25;;;5.55;56.17
54329;BME280;40710;51.120;13.136;2023-04-04T00:39:52;100619.03;;;5.74;55.76
54329;BME280;40710;51.120;13.136;2023-04-04T00:42:16;100620.94;;;5.61;56.52
54329;BME280;40710;51.120;13.136;2023-04-04T00:44:41;100618.88;;;5.87;55.50
54329;BME280;40710;51.120;13.136;2023-04-04T00:47:05;100615.63;;;5.68;55.64
54329;BME280;40710;51.120;13.136;2023-04-04T00:49:30;100615.03;;;5.46;56.71
54329;BME280;40710;51.120;13.136;2023-04-04T00:51:55;100614.97;;;5.53;56.42
54329;BME280;40710;51.120;13.136;2023-04-04T00:54:20;100610.59;;;5.53;56.24
54329;BME280;40710;51.120;13.136;2023-04-04T00:56:45;100615.00;;;5.49;56.18
54329;BME280;40710;51.120;13.136;2023-04-04T00:59:10;100611.22;;;5.74;55.62
54329;BME280;40710;51.120;13.136;2023-04-04T01:01:35;100605.03;;;5.81;55.69
54329;BME280;40710;51.120;13.136;2023-04-04T01:04:00;100607.00;;;5.63;55.45
54329;BME280;40710;51.120;13.136;2023-04-04T01:06:26;100600.69;;;5.80;55.73
54329;BME280;40710;51.120;13.136;2023-04-04T01:08:51;100603.44;;;5.71;55.98
54329;BME280;40710;51.120;13.136;2023-04-04T01:11:15;100599.13;;;5.68;55.87
54329;BME280;40710;51.120;13.136;2023-04-04T01:13:42;100601.84;;;5.59;55.71
54329;BME280;40710;51.120;13.136;2023-04-04T01:16:07;100604.59;;;5.46;55.78
54329;BME280;40710;51.120;13.136;2023-04-04T01:18:34;100600.94;;;5.61;56.27
54329;BME280;40710;51.120;13.136;2023-04-04T01:21:02;100600.19;;;5.52;56.25
54329;BME280;40710;51.120;13.136;2023-04-04T01:23:50;100604.44;;;5.60;56.22
54329;BME280;40710;51.120;13.136;2023-04-04T01:26:20;100596.13;;;5.27;56.24
54329;BME280;40710;51.120;13.136;2023-04-04T01:28:46;100596.09;;;5.30;56.85
54329;BME280;40710;51.120;13.136;2023-04-04T01:31:13;100589.28;;;5.19;56.98
54329;BME280;40710;51.120;13.136;2023-04-04T01:33:51;100591.66;;;5.40;56.51
54329;BME280;40710;51.120;13.136;2023-04-04T01:36:34;100586.19;;;5.59;56.29
54329;BME280;40710;51.120;13.136;2023-04-04T01:39:20;100587.34;;;5.36;56.20
54329;BME280;40710;51.120;13.136;2023-04-04T01:41:47;100583.75;;;5.45;56.21
54329;BME280;40710;51.120;13.136;2023-04-04T01:44:12;100583.22;;;5.17;57.09
54329;BME280;40710;51.120;13.136;2023-04-04T01:46:39;100586.34;;;5.46;56.38
54329;BME280;40710;51.120;13.136;2023-04-04T01:49:03;100582.88;;;5.47;56.20
54329;BME280;40710;51.120;13.136;2023-04-04T01:51:29;100588.31;;;5.27;57.36
54329;BME280;40710;51.120;13.136;2023-04-04T01:53:54;100582.13;;;5.36;56.57
54329;BME280;40710;51.120;13.136;2023-04-04T01:56:18;100582.06;;;5.44;56.51
54329;BME280;40710;51.120;13.136;2023-04-04T01:58:43;100577.81;;;5.34;56.91
54329;BME280;40710;51.120;13.136;2023-04-04T02:01:07;100574.59;;;5.10;57.59
54329;BME280;40710;51.120;13.136;2023-04-04T02:03:32;100582.31;;;5.21;57.13
54329;BME280;40710;51.120;13.136;2023-04-04T02:05:57;100579.91;;;5.02;58.33
54329;BME280;40710;51.120;13.136;2023-04-04T02:08:21;100584.84;;;5.27;56.99
54329;BME280;40710;51.120;13.136;2023-04-04T02:10:47;100574.38;;;5.33;57.37
54329;BME280;40710;51.120;13.136;2023-04-04T02:13:11;100577.66;;;5.47;56.91
54329;BME280;40710;51.120;13.136;2023-04-04T02:15:36;100577.72;;;5.41;56.64
54329;BME280;40710;51.120;13.136;2023-04-04T02:18:01;100574.56;;;5.15;56.60
54329;BME280;40710;51.120;13.136;2023-04-04T02:20:25;100569.22;;;5.27;56.50
54329;BME280;40710;51.120;13.136;2023-04-04T02:22:51;100571.22;;;5.03;57.02
54329;BME280;40710;51.120;13.136;2023-04-04T02:25:16;100571.03;;;5.19;57.43
54329;BME280;40710;51.120;13.136;2023-04-04T02:27:40;100568.25;;;5.36;56.52
54329;BME280;40710;51.120;13.136;2023-04-04T02:30:05;100565.22;;;4.98;56.98
54329;BME280;40710;51.120;13.136;2023-04-04T02:32:30;100559.91;;;5.04;57.14
54329;BME280;40710;51.120;13.136;2023-04-04T02:34:55;100563.97;;;5.30;56.89
54329;BME280;40710;51.120;13.136;2023-04-04T02:37:19;100565.09;;;5.07;56.78
54329;BME280;40710;51.120;13.136;2023-04-04T02:39:44;100562.38;;;5.18;57.37
54329;BME280;40710;51.120;13.136;2023-04-04T02:42:08;100558.22;;;5.03;57.55
54329;BME280;40710;51.120;13.136;2023-04-04T02:44:33;100559.88;;;5.07;57.01
54329;BME280;40710;51.120;13.136;2023-04-04T02:46:58;100563.50;;;4.94;57.50
54329;BME280;40710;51.120;13.136;2023-04-04T02:49:22;100563.56;;;4.88;57.51
54329;BME280;40710;51.120;13.136;2023-04-04T02:51:47;100571.16;;;5.09;57.63
54329;BME280;40710;51.120;13.136;2023-04-04T02:54:11;100564.31;;;4.99;57.88
54329;BME280;40710;51.120;13.136;2023-04-04T02:56:36;100560.84;;;4.99;57.56
54329;BME280;40710;51.120;13.136;2023-04-04T02:59:01;100549.56;;;5.00;57.49
54329;BME280;40710;51.120;13.136;2023-04-04T03:01:27;100555.78;;;4.83;57.78
54329;BME280;40710;51.120;13.136;2023-04-04T03:03:51;100553.91;;;4.98;58.51
54329;BME280;40710;51.120;13.136;2023-04-04T03:06:16;100558.28;;;4.94;57.60
54329;BME280;40710;51.120;13.136;2023-04-04T03:08:40;100554.81;;;4.97;57.83
54329;BME280;40710;51.120;13.136;2023-04-04T03:11:05;100551.75;;;4.56;58.60
54329;BME280;40710;51.120;13.136;2023-04-04T03:13:30;100550.59;;;4.83;58.21
54329;BME280;40710;51.120;13.136;2023-04-04T03:16:00;100547.72;;;5.08;57.42
54329;BME280;40710;51.120;13.136;2023-04-04T03:18:26;100542.03;;;4.73;58.51
54329;BME280;40710;51.120;13.136;2023-04-04T03:20:51;100543.59;;;4.87;57.67
54329;BME280;40710;51.120;13.136;2023-04-04T03:23:16;100540.31;;;4.68;58.66
54329;BME280;40710;51.120;13.136;2023-04-04T03:25:41;100544.81;;;4.52;58.18
54329;BME280;40710;51.120;13.136;2023-04-04T03:28:09;100541.94;;;4.80;58.88
54329;BME280;40710;51.120;13.136;2023-04-04T03:30:34;100545.59;;;4.63;58.56
54329;BME280;40710;51.120;13.136;2023-04-04T03:33:03;100544.56;;;4.78;59.64
54329;BME280;40710;51.120;13.136;2023-04-04T03:35:30;100541.00;;;4.87;58.62
54329;BME280;40710;51.120;13.136;2023-04-04T03:37:55;100546.28;;;4.81;57.88
54329;BME280;40710;51.120;13.136;2023-04-04T03:40:20;100538.78;;;4.48;58.68
54329;BME280;40710;51.120;13.136;2023-04-04T03:42:45;100539.34;;;4.80;58.47
54329;BME280;40710;51.120;13.136;2023-04-04T03:45:10;100535.56;;;5.08;57.06
54329;BME280;40710;51.120;13.136;2023-04-04T03:47:35;100539.38;;;4.77;58.52
54329;BME280;40710;51.120;13.136;2023-04-04T03:49:59;100543.16;;;4.42;58.88
54329;BME280;40710;51.120;13.136;2023-04-04T03:52:24;100538.88;;;4.38;59.02
54329;BME280;40710;51.120;13.136;2023-04-04T03:54:48;100540.63;;;4.37;59.82
54329;BME280;40710;51.120;13.136;2023-04-04T03:57:13;100536.50;;;4.11;59.57
54329;BME280;40710;51.120;13.136;2023-04-04T03:59:38;100536.28;;;4.38;59.81
54329;BME280;40710;51.120;13.136;2023-04-04T04:02:02;100533.56;;;4.50;59.19
54329;BME280;40710;51.120;13.136;2023-04-04T04:04:27;100532.94;;;4.20;59.99
54329;BME280;40710;51.120;13.136;2023-04-04T04:51:06;100540.72;;;4.28;59.21
54329;BME280;40710;51.120;13.136;2023-04-04T04:56:21;100539.88;;;4.23;59.08
54329;BME280;40710;51.120;13.136;2023-04-04T04:58:46;100553.19;;;3.76;60.19
54329;BME280;40710;51.120;13.136;2023-04-04T05:01:12;100546.03;;;4.12;59.87
54329;BME280;40710;51.120;13.136;2023-04-04T05:03:36;100545.97;;;4.19;58.84
54329;BME280;40710;51.120;13.136;2023-04-04T05:06:01;100551.16;;;4.23;59.01
54329;BME280;40710;51.120;13.136;2023-04-04T05:08:25;100549.97;;;4.61;58.74
54329;BME280;40710;51.120;13.136;2023-04-04T05:10:50;100551.06;;;4.34;58.92
54329;BME280;40710;51.120;13.136;2023-04-04T05:13:16;100552.72;;;4.40;57.93
54329;BME280;40710;51.120;13.136;2023-04-04T05:15:40;100553.63;;;4.40;59.24
54329;BME280;40710;51.120;13.136;2023-04-04T05:18:05;100560.72;;;4.18;58.92
54329;BME280;40710;51.120;13.136;2023-04-04T05:20:30;100562.69;;;3.85;59.73
54329;BME280;40710;51.120;13.136;2023-04-04T05:22:55;100562.19;;;4.53;58.29
54329;BME280;40710;51.120;13.136;2023-04-04T05:25:19;100562.47;;;4.16;59.02
54329;BME280;40710;51.120;13.136;2023-04-04T05:27:47;100558.75;;;4.46;59.30
54329;BME280;40710;51.120;13.136;2023-04-04T05:30:12;100565.63;;;4.52;58.29
54329;BME280;40710;51.120;13.136;2023-04-04T05:32:37;100570.09;;;4.42;58.41
54329;BME280;40710;51.120;13.136;2023-04-04T05:35:01;100568.25;;;4.52;58.34
54329;BME280;40710;51.120;13.136;2023-04-04T05:37:27;100570.19;;;4.31;58.90
54329;BME280;40710;51.120;13.136;2023-04-04T05:39:51;100570.81;;;4.55;58.55
54329;BME280;40710;51.120;13.136;2023-04-04T05:42:16;100563.63;;;4.82;57.31
54329;BME280;40710;51.120;13.136;2023-04-04T05:44:41;100573.28;;;4.70;57.88
54329;BME280;40710;51.120;13.136;2023-04-04T05:47:05;100578.72;;;4.44;58.48
54329;BME280;40710;51.120;13.136;2023-04-04T05:49:30;100573.31;;;4.66;57.50
54329;BME280;40710;51.120;13.136;2023-04-04T05:59:50;100578.25;;;4.95;57.02
54329;BME280;40710;51.120;13.136;2023-04-04T06:02:49;100574.88;;;4.85;57.42
54329;BME280;40710;51.120;13.136;2023-04-04T06:05:16;100575.69;;;4.89;56.15
54329;BME280;40710;51.120;13.136;2023-04-04T06:07:41;100570.56;;;4.84;57.07
54329;BME280;40710;51.120;13.136;2023-04-04T06:10:06;100577.06;;;5.24;55.58
54329;BME280;40710;51.120;13.136;2023-04-04T06:12:31;100573.75;;;5.11;56.25
54329;BME280;40710;51.120;13.136;2023-04-04T06:14:55;100572.38;;;5.52;55.89
54329;BME280;40710;51.120;13.136;2023-04-04T06:17:20;100568.75;;;5.64;55.14
54329;BME280;40710;51.120;13.136;2023-04-04T06:19:44;100568.34;;;5.93;54.79
54329;BME280;40710;51.120;13.136;2023-04-04T06:22:09;100574.00;;;5.61;55.90
54329;BME280;40710;51.120;13.136;2023-04-04T06:24:34;100568.53;;;5.79;55.01
54329;BME280;40710;51.120;13.136;2023-04-04T06:26:58;100565.72;;;5.95;54.32
54329;BME280;40710;51.120;13.136;2023-04-04T06:29:23;100559.34;;;6.14;53.90
54329;BME280;40710;51.120;13.136;2023-04-04T06:31:49;100570.09;;;5.93;55.16
54329;BME280;40710;51.120;13.136;2023-04-04T06:34:13;100563.22;;;5.85;55.13
54329;BME280;40710;51.120;13.136;2023-04-04T06:36:38;100554.94;;;6.18;53.58
54329;BME280;40710;51.120;13.136;2023-04-04T06:39:03;100549.28;;;6.44;53.34
54329;BME280;40710;51.120;13.136;2023-04-04T06:41:27;100561.81;;;5.63;54.60
54329;BME280;40710;51.120;13.136;2023-04-04T06:43:52;100552.56;;;6.55;52.87
54329;BME280;40710;51.120;13.136;2023-04-04T06:46:16;100551.13;;;6.39;52.92
54329;BME280;40710;51.120;13.136;2023-04-04T06:48:41;100550.91;;;6.51;52.38
54329;BME280;40710;51.120;13.136;2023-04-04T06:51:07;100549.38;;;6.39;52.86
54329;BME280;40710;51.120;13.136;2023-04-04T06:53:31;100545.78;;;6.93;51.75
54329;BME280;40710;51.120;13.136;2023-04-04T06:55:57;100545.34;;;7.16;51.29
54329;BME280;40710;51.120;13.136;2023-04-04T06:58:21;100543.13;;;7.40;50.97
54329;BME280;40710;51.120;13.136;2023-04-04T07:00:46;100535.34;;;7.76;49.37
54329;BME280;40710;51.120;13.136;2023-04-04T07:03:10;100540.78;;;7.26;51.44
54329;BME280;40710;51.120;13.136;2023-04-04T07:05:36;100535.69;;;7.61;50.45
54329;BME280;40710;51.120;13.136;2023-04-04T07:08:03;100529.09;;;7.82;49.54
54329;BME280;40710;51.120;13.136;2023-04-04T07:10:27;100528.47;;;8.09;49.61
54329;BME280;40710;51.120;13.136;2023-04-04T07:12:52;100517.75;;;8.19;48.44
54329;BME280;40710;51.120;13.136;2023-04-04T07:15:16;100522.06;;;8.57;47.22
54329;BME280;40710;51.120;13.136;2023-04-04T07:17:41;100521.13;;;8.93;47.13
54329;BME280;40710;51.120;13.136;2023-04-04T07:20:06;100516.16;;;9.13;45.79
54329;BME280;40710;51.120;13.136;2023-04-04T07:22:31;100517.44;;;9.00;46.29
54329;BME280;40710;51.120;13.136;2023-04-04T07:24:55;100516.38;;;9.65;45.40
54329;BME280;40710;51.120;13.136;2023-04-04T07:27:20;100510.75;;;9.49;45.21
54329;BME280;40710;51.120;13.136;2023-04-04T07:29:45;100502.75;;;9.82;44.32
54329;BME280;40710;51.120;13.136;2023-04-04T07:32:10;100502.94;;;10.56;43.38
54329;BME280;40710;51.120;13.136;2023-04-04T07:34:34;100514.06;;;9.84;44.72
54329;BME280;40710;51.120;13.136;2023-04-04T07:36:59;100498.91;;;10.19;43.89
54329;BME280;40710;51.120;13.136;2023-04-04T07:39:23;100511.97;;;9.65;45.13
54329;BME280;40710;51.120;13.136;2023-04-04T07:41:48;100511.81;;;9.72;44.26
54329;BME280;40710;51.120;13.136;2023-04-04T07:44:12;100498.91;;;10.71;43.32
54329;BME280;40710;51.120;13.136;2023-04-04T07:46:37;100481.47;;;11.63;40.15
54329;BME280;40710;51.120;13.136;2023-04-04T07:49:01;100499.63;;;10.24;41.84
54329;BME280;40710;51.120;13.136;2023-04-04T07:51:26;100497.50;;;11.57;41.67
54329;BME280;40710;51.120;13.136;2023-04-04T07:53:54;100493.03;;;13.05;39.45
54329;BME280;40710;51.120;13.136;2023-04-04T07:56:19;100483.25;;;13.08;36.79
54329;BME280;40710;51.120;13.136;2023-04-04T07:58:44;100480.88;;;14.14;36.01
54329;BME280;40710;51.120;13.136;2023-04-04T08:01:09;100481.59;;;14.17;35.47
54329;BME280;40710;51.120;13.136;2023-04-04T08:03:33;100475.19;;;14.39;34.73
54329;BME280;40710;51.120;13.136;2023-04-04T08:05:58;100471.78;;;15.21;34.73
54329;BME280;40710;51.120;13.136;2023-04-04T08:08:23;100474.34;;;14.38;34.61
54329;BME280;40710;51.120;13.136;2023-04-04T08:10:47;100472.22;;;13.93;35.04
54329;BME280;40710;51.120;13.136;2023-04-04T08:13:12;100513.09;;;11.15;39.91
54329;BME280;40710;51.120;13.136;2023-04-04T08:15:37;100515.75;;;11.38;40.31
54329;BME280;40710;51.120;13.136;2023-04-04T08:18:02;100491.88;;;14.24;35.64
54329;BME280;40710;51.120;13.136;2023-04-04T08:20:26;100498.25;;;13.07;36.48
54329;BME280;40710;51.120;13.136;2023-04-04T08:22:51;100505.31;;;12.04;38.56
54329;BME280;40710;51.120;13.136;2023-04-04T08:25:16;100517.84;;;11.29;39.71
54329;BME280;40710;51.120;13.136;2023-04-04T08:27:41;100506.91;;;10.93;40.31
54329;BME280;40710;51.120;13.136;2023-04-04T08:30:08;100507.00;;;11.37;40.36
54329;BME280;40710;51.120;13.136;2023-04-04T08:32:32;100507.41;;;10.54;40.03
54329;BME280;40710;51.120;13.136;2023-04-04T08:34:57;100517.50;;;10.66;42.67
54329;BME280;40710;51.120;13.136;2023-04-04T08:37:22;100503.44;;;12.28;39.11
54329;BME280;40710;51.120;13.136;2023-04-04T08:39:46;100466.94;;;15.29;32.76
54329;BME280;40710;51.120;13.136;2023-04-04T08:42:14;100491.25;;;12.46;36.69
54329;BME280;40710;51.120;13.136;2023-04-04T08:44:40;100498.06;;;12.09;37.13
54329;BME280;40710;51.120;13.136;2023-04-04T08:47:09;100506.00;;;10.44;40.25
54329;BME280;40710;51.120;13.136;2023-04-04T08:49:40;100522.47;;;9.65;41.09
54329;BME280;40710;51.120;13.136;2023-04-04T08:52:07;100528.78;;;9.60;42.42
54329;BME280;40710;51.120;13.136;2023-04-04T08:54:37;100474.72;;;14.83;34.36
54329;BME280;40710;51.120;13.136;2023-04-04T08:57:03;100490.88;;;12.55;36.64
54329;BME280;40710;51.120;13.136;2023-04-04T08:59:27;100486.91;;;12.24;36.33
54329;BME280;40710;51.120;13.136;2023-04-04T09:02:03;100474.69;;;13.78;34.07
54329;BME280;40710;51.120;13.136;2023-04-04T09:04:30;100477.38;;;12.00;35.19
54329;BME280;40710;51.120;13.136;2023-04-04T09:06:55;100470.13;;;13.25;33.84
54329;BME280;40710;51.120;13.136;2023-04-04T09:09:21;100493.19;;;11.08;36.60
54329;BME280;40710;51.120;13.136;2023-04-04T09:11:47;100501.59;;;10.69;37.73
54329;BME280;40710;51.120;13.136;2023-04-04T09:14:14;100491.34;;;10.36;35.92
54329;BME280;40710;51.120;13.136;2023-04-04T09:16:39;100473.84;;;12.42;32.73
54329;BME280;40710;51.120;13.136;2023-04-04T09:19:04;100489.31;;;10.18;35.63
54329;BME280;40710;51.120;13.136;2023-04-04T09:21:32;100480.47;;;12.09;33.60
54329;BME280;40710;51.120;13.136;2023-04-04T09:23:58;100450.91;;;15.95;28.58
54329;BME280;40710;51.120;13.136;2023-04-04T09:26:23;100456.16;;;15.64;29.78
54329;BME280;40710;51.120;13.136;2023-04-04T09:28:52;100487.47;;;12.93;32.61
54329;BME280;40710;51.120;13.136;2023-04-04T09:31:16;100490.59;;;12.20;33.62
54329;BME280;40710;51.120;13.136;2023-04-04T09:33:41;100493.56;;;11.67;33.13
54329;BME280;40710;51.120;13.136;2023-04-04T09:36:06;100489.91;;;13.16;31.94
54329;BME280;40710;51.120;13.136;2023-04-04T09:38:38;100484.75;;;11.46;32.43
54329;BME280;40710;51.120;13.136;2023-04-04T09:41:06;100495.88;;;11.07;33.31
54329;BME280;40710;51.120;13.136;2023-04-04T09:43:31;100490.44;;;10.88;33.23
54329;BME280;40710;51.120;13.136;2023-04-04T09:45:55;100484.22;;;12.86;30.87
54329;BME280;40710;51.120;13.136;2023-04-04T09:48:31;100475.78;;;12.78;28.66
54329;BME280;40710;51.120;13.136;2023-04-04T09:50:56;100454.41;;;16.85;24.68
54329;BME280;40710;51.120;13.136;2023-04-04T09:53:22;100449.63;;;18.02;23.39
54329;BME280;40710;51.120;13.136;2023-04-04T09:55:51;100441.94;;;20.11;23.00
54329;BME280;40710;51.120;13.136;2023-04-04T09:58:19;100447.03;;;19.41;22.67
54329;BME280;40710;51.120;13.136;2023-04-04T10:00:48;100444.78;;;20.32;22.10
54329;BME280;40710;51.120;13.136;2023-04-04T10:03:16;100494.25;;;14.46;27.61
54329;BME280;40710;51.120;13.136;2023-04-04T10:05:43;100505.13;;;13.68;29.87
54329;BME280;40710;51.120;13.136;2023-04-04T10:08:16;100489.56;;;13.62;28.89
54329;BME280;40710;51.120;13.136;2023-04-04T10:10:46;100506.91;;;12.28;30.77
54329;BME280;40710;51.120;13.136;2023-04-04T10:13:10;100500.56;;;13.34;30.16
54329;BME280;40710;51.120;13.136;2023-04-04T10:15:35;100501.47;;;12.54;30.79
54329;BME280;40710;51.120;13.136;2023-04-04T10:18:02;100502.44;;;12.72;30.89
54329;BME280;40710;51.120;13.136;2023-04-04T10:20:27;100500.66;;;12.52;30.95
54329;BME280;40710;51.120;13.136;2023-04-04T10:22:55;100473.28;;;14.93;28.69
54329;BME280;40710;51.120;13.136;2023-04-04T10:25:20;100453.94;;;17.07;25.31
54329;BME280;40710;51.120;13.136;2023-04-04T10:27:44;100449.16;;;17.68;25.30
54329;BME280;40710;51.120;13.136;2023-04-04T10:30:09;100458.03;;;16.84;25.05
54329;BME280;40710;51.120;13.136;2023-04-04T10:33:00;100453.72;;;14.80;25.59
54329;BME280;40710;51.120;13.136;2023-04-04T10:35:30;100470.09;;;14.18;26.74
54329;BME280;40710;51.120;13.136;2023-04-04T10:38:00;100454.34;;;16.27;25.66
54329;BME280;40710;51.120;13.136;2023-04-04T10:40:30;100436.94;;;18.84;23.51
54329;BME280;40710;51.120;13.136;2023-04-04T10:43:01;100441.72;;;17.04;25.31
54329;BME280;40710;51.120;13.136;2023-04-04T10:45:28;100468.13;;;14.74;27.19
54329;BME280;40710;51.120;13.136;2023-04-04T10:47:54;100426.75;;;17.99;22.92
54329;BME280;40710;51.120;13.136;2023-04-04T10:50:20;100430.22;;;18.65;23.37
54329;BME280;40710;51.120;13.136;2023-04-04T10:52:44;100425.63;;;18.93;22.25
54329;BME280;40710;51.120;13.136;2023-04-04T10:55:13;100406.50;;;19.97;21.15
54329;BME280;40710;51.120;13.136;2023-04-04T10:57:44;100421.69;;;18.22;22.16
54329;BME280;40710;51.120;13.136;2023-04-04T11:00:15;100411.00;;;19.97;21.12
54329;BME280;40710;51.120;13.136;2023-04-04T11:02:59;100401.03;;;19.99;20.54
54329;BME280;40710;51.120;13.136;2023-04-04T11:05:36;100420.19;;;17.50;22.66
54329;BME280;40710;51.120;13.136;2023-04-04T11:08:08;100410.97;;;17.69;22.86
54329;BME280;40710;51.120;13.136;2023-04-04T11:10:35;100449.19;;;13.77;27.18
54329;BME280;40710;51.120;13.136;2023-04-04T11:13:07;100435.78;;;15.97;24.94
54329;BME280;40710;51.120;13.136;2023-04-04T11:18:20;100397.63;;;18.23;21.62
54329;BME280;40710;51.120;13.136;2023-04-04T11:20:46;100394.31;;;18.58;21.03
54329;BME280;40710;51.120;13.136;2023-04-04T11:23:19;100387.00;;;19.12;20.33
54329;BME280;40710;51.120;13.136;2023-04-04T11:25:53;100412.69;;;17.01;23.46
54329;BME280;40710;51.120;13.136;2023-04-04T11:33:59;100380.25;;;19.80;20.52
54329;BME280;40710;51.120;13.136;2023-04-04T11:36:49;100394.00;;;18.88;22.71
54329;BME280;40710;51.120;13.136;2023-04-04T11:42:10;100396.97;;;17.39;22.19
54329;BME280;40710;51.120;13.136;2023-04-04T11:47:20;100368.75;;;20.02;19.93
54329;BME280;40710;51.120;13.136;2023-04-04T11:49:46;100368.38;;;20.53;20.32
54329;BME280;40710;51.120;13.136;2023-04-04T11:52:16;100371.09;;;19.71;20.57
54329;BME280;40710;51.120;13.136;2023-04-04T11:54:42;100371.78;;;20.44;21.01
54329;BME280;40710;51.120;13.136;2023-04-04T11:57:11;100369.06;;;19.75;21.31
54329;BME280;40710;51.120;13.136;2023-04-04T11:59:39;100372.38;;;17.90;22.74
54329;BME280;40710;51.120;13.136;2023-04-04T12:02:05;100376.59;;;16.55;22.56
54329;BME280;40710;51.120;13.136;2023-04-04T12:04:30;100363.56;;;17.35;22.13
54329;BME280;40710;51.120;13.136;2023-04-04T12:06:55;100362.69;;;17.89;22.28
54329;BME280;40710;51.120;13.136;2023-04-04T12:09:21;100363.59;;;19.04;22.26
54329;BME280;40710;51.120;13.136;2023-04-04T12:11:46;100365.03;;;18.58;21.90
54329;BME280;40710;51.120;13.136;2023-04-04T12:14:15;100363.53;;;17.50;21.53
54329;BME280;40710;51.120;13.136;2023-04-04T12:16:42;100357.31;;;17.09;21.98
54329;BME280;40710;51.120;13.136;2023-04-04T12:19:06;100348.56;;;18.53;21.49
54329;BME280;40710;51.120;13.136;2023-04-04T12:21:31;100340.84;;;19.35;21.51
54329;BME280;40710;51.120;13.136;2023-04-04T12:23:56;100339.59;;;17.50;21.20
54329;BME280;40710;51.120;13.136;2023-04-04T12:26:21;100344.41;;;18.36;20.88
54329;BME280;40710;51.120;13.136;2023-04-04T12:28:46;100345.84;;;17.76;22.19
54329;BME280;40710;51.120;13.136;2023-04-04T12:31:13;100338.34;;;18.08;21.09
54329;BME280;40710;51.120;13.136;2023-04-04T12:33:42;100341.84;;;18.35;21.74
54329;BME280;40710;51.120;13.136;2023-04-04T12:36:06;100346.28;;;15.86;22.92
54329;BME280;40710;51.120;13.136;2023-04-04T12:38:31;100360.69;;;15.66;24.61
54329;BME280;40710;51.120;13.136;2023-04-04T12:40:57;100368.94;;;14.82;24.89
54329;BME280;40710;51.120;13.136;2023-04-04T12:43:24;100355.97;;;15.71;24.16
54329;BME280;40710;51.120;13.136;2023-04-04T12:45:50;100364.72;;;15.57;25.13
54329;BME280;40710;51.120;13.136;2023-04-04T12:48:15;100341.91;;;17.14;23.83
54329;BME280;40710;51.120;13.136;2023-04-04T12:50:52;100339.78;;;17.19;23.18
54329;BME280;40710;51.120;13.136;2023-04-04T12:53:21;100334.38;;;17.48;22.46
54329;BME280;40710;51.120;13.136;2023-04-04T12:55:47;100346.66;;;15.80;23.19
54329;BME280;40710;51.120;13.136;2023-04-04T12:58:22;100344.06;;;16.37;22.75
54329;BME280;40710;51.120;13.136;2023-04-04T13:00:50;100345.50;;;16.57;23.30
54329;BME280;40710;51.120;13.136;2023-04-04T13:03:16;100337.16;;;16.49;22.53
54329;BME280;40710;51.120;13.136;2023-04-04T13:05:45;100340.41;;;15.35;23.64
54329;BME280;40710;51.120;13.136;2023-04-04T13:08:10;100350.00;;;14.89;24.81
54329;BME280;40710;51.120;13.136;2023-04-04T13:10:54;100334.03;;;16.57;24.16
54329;BME280;40710;51.120;13.136;2023-04-04T13:13:36;100333.72;;;16.61;23.86
54329;BME280;40710;51.120;13.136;2023-04-04T13:16:09;100329.41;;;14.94;24.68
54329;BME280;40710;51.120;13.136;2023-04-04T13:18:37;100326.66;;;16.62;23.67
54329;BME280;40710;51.120;13.136;2023-04-04T13:21:04;100331.72;;;16.07;24.03
54329;BME280;40710;51.120;13.136;2023-04-04T13:23:30;100325.50;;;16.66;23.60
54329;BME280;40710;51.120;13.136;2023-04-04T13:25:55;100324.22;;;14.77;25.06
54329;BME280;40710;51.120;13.136;2023-04-04T13:28:21;100324.22;;;15.55;24.00
54329;BME280;40710;51.120;13.136;2023-04-04T13:30:46;100333.66;;;14.32;25.12
54329;BME280;40710;51.120;13.136;2023-04-04T13:33:12;100330.97;;;14.16;25.48
54329;BME280;40710;51.120;13.136;2023-04-04T13:35:37;100323.94;;;15.29;24.22
54329;BME280;40710;51.120;13.136;2023-04-04T13:38:02;100316.69;;;16.37;24.86
54329;BME280;40710;51.120;13.136;2023-04-04T13:40:26;100306.28;;;16.48;23.30
54329;BME280;40710;51.120;13.136;2023-04-04T13:42:51;100296.56;;;17.17;23.15
54329;BME280;40710;51.120;13.136;2023-04-04T13:45:16;100290.75;;;17.25;22.29
54329;BME280;40710;51.120;13.136;2023-04-04T13:47:40;100303.50;;;15.78;24.13
54329;BME280;40710;51.120;13.136;2023-04-04T13:50:05;100310.06;;;15.40;24.47